createdAt,value
2018-11-20T00:00:32.964Z,76.48
2018-11-20T00:03:22.727Z,75.62
2018-11-20T00:06:11.559Z,74.90
2018-11-20T00:09:00.369Z,75.14
2018-11-20T00:11:59.019Z,75.14
2018-11-20T00:14:41.716Z,75.35
2018-11-20T00:17:31.668Z,75.17
2018-11-20T00:20:24.525Z,75.20
2018-11-20T00:23:17.185Z,74.29
2018-11-20T00:26:16.531Z,74.61
2018-11-20T00:29:17.064Z,75.04
2018-11-20T00:32:12.844Z,74.92
2018-11-20T00:35:02.262Z,74.92
2018-11-20T00:37:52.222Z,74.45
2018-11-20T00:40:44.820Z,73.55
2018-11-20T00:43:43.857Z,73.88
2018-11-20T00:46:42.749Z,73.88
2018-11-20T00:49:32.616Z,74.13
2018-11-20T00:52:22.381Z,73.82
2018-11-20T00:55:10.903Z,74.34
2018-11-20T00:57:54.577Z,74.34
2018-11-20T01:00:42.958Z,74.69
2018-11-20T01:03:39.042Z,75.35
2018-11-20T01:06:37.682Z,75.19
2018-11-20T01:09:22.125Z,75.29
2018-11-20T01:12:24.191Z,75.58
2018-11-20T01:15:15.080Z,75.53
2018-11-20T01:18:14.076Z,74.75
2018-11-20T01:21:09.792Z,74.75
2018-11-20T01:23:55.287Z,74.19
2018-11-20T01:26:50.890Z,75.67
2018-11-20T01:29:49.756Z,75.67
2018-11-20T01:32:30.192Z,74.96
2018-11-20T01:35:20.830Z,74.41
2018-11-20T01:38:03.088Z,75.19
2018-11-20T01:40:55.637Z,75.19
2018-11-20T01:43:48.361Z,74.33
2018-11-20T01:46:32.047Z,73.93
2018-11-20T01:49:33.988Z,73.63
2018-11-20T01:52:18.789Z,74.55
2018-11-20T01:55:07.516Z,74.55
2018-11-20T01:58:00.328Z,75.04
2018-11-20T02:00:49.060Z,74.71
2018-11-20T02:03:37.878Z,75.31
2018-11-20T02:06:27.596Z,75.82
2018-11-20T02:09:16.261Z,75.91
2018-11-20T02:11:58.057Z,76.12
2018-11-20T02:14:46.751Z,75.42
2018-11-20T02:17:48.773Z,75.42
2018-11-20T02:20:47.554Z,74.65
2018-11-20T02:23:37.401Z,74.65
2018-11-20T02:26:31.458Z,74.29
2018-11-20T02:29:21.275Z,75.25
2018-11-20T02:32:13.828Z,75.25
2018-11-20T02:34:54.264Z,75.13
2018-11-20T02:37:50.042Z,75.09
2018-11-20T02:40:38.395Z,75.09
2018-11-20T02:43:20.820Z,75.00
2018-11-20T02:46:10.689Z,74.71
2018-11-20T02:49:00.579Z,74.46
2018-11-20T02:51:50.007Z,74.74
2018-11-20T02:54:38.632Z,74.74
2018-11-20T02:57:23.054Z,74.62
2018-11-20T03:00:07.611Z,74.62
2018-11-20T03:03:04.483Z,75.63
2018-11-20T03:06:00.306Z,75.80
2018-11-20T03:08:56.050Z,75.30
2018-11-20T03:11:44.549Z,75.53
2018-11-20T03:14:43.446Z,75.53
2018-11-20T03:17:31.902Z,75.47
2018-11-20T03:20:30.905Z,75.08
2018-11-20T03:23:23.357Z,75.08
2018-11-20T03:26:33.869Z,74.68
2018-11-20T03:29:38.134Z,74.16
2018-11-20T03:32:23.829Z,74.31
2018-11-20T03:35:09.343Z,74.34
2018-11-20T03:37:57.965Z,74.99
2018-11-20T03:40:53.618Z,75.28
2018-11-20T03:43:41.991Z,75.28
2018-11-20T03:46:30.248Z,74.72
2018-11-20T03:49:26.203Z,75.78
2018-11-20T03:52:14.662Z,75.87
2018-11-20T03:55:04.602Z,75.99
2018-11-20T03:58:09.481Z,75.99
2018-11-20T04:01:10.858Z,76.28
2018-11-20T04:04:08.509Z,76.28
2018-11-20T04:06:50.846Z,75.90
2018-11-20T04:09:39.375Z,76.08
2018-11-20T04:12:29.303Z,75.46
2018-11-20T04:15:17.920Z,75.29
2018-11-20T04:18:26.128Z,74.67
2018-11-20T04:21:21.770Z,75.07
2018-11-20T04:24:20.632Z,75.78
2018-11-20T04:27:09.090Z,75.78
2018-11-20T04:29:57.983Z,75.96
2018-11-20T04:32:47.900Z,75.88
2018-11-20T04:35:34.887Z,75.62
2018-11-20T04:38:24.699Z,75.64
2018-11-20T04:41:10.564Z,75.29
2018-11-20T04:44:12.280Z,76.50
2018-11-20T04:46:57.814Z,76.21
2018-11-20T04:49:47.675Z,76.39
2018-11-20T04:52:52.473Z,76.39
2018-11-20T04:55:42.393Z,76.27
2018-11-20T04:58:27.354Z,76.43
2018-11-20T05:01:19.820Z,76.37
2018-11-20T05:04:21.817Z,76.37
2018-11-20T05:07:17.661Z,76.46
2018-11-20T05:10:22.815Z,77.43
2018-11-20T05:13:04.432Z,77.43
2018-11-20T05:15:56.986Z,77.33
2018-11-20T05:18:55.676Z,77.70
2018-11-20T05:21:44.299Z,77.42
2018-11-20T05:24:34.606Z,77.57
2018-11-20T05:27:33.215Z,77.32
2018-11-20T05:30:28.952Z,77.87
2018-11-20T05:33:21.582Z,77.30
2018-11-20T05:36:09.963Z,77.51
2018-11-20T05:39:02.676Z,77.56
2018-11-20T05:41:52.562Z,77.59
2018-11-20T05:44:39.554Z,77.90
2018-11-20T05:47:30.293Z,78.03
2018-11-20T05:50:19.108Z,78.16
2018-11-20T05:53:14.762Z,78.55
2018-11-20T05:56:04.668Z,78.71
2018-11-20T05:58:50.247Z,78.96
2018-11-20T06:01:49.117Z,79.01
2018-11-20T06:04:37.625Z,79.08
2018-11-20T06:07:25.912Z,79.39
2018-11-20T06:10:14.536Z,79.70
2018-11-20T06:12:56.778Z,79.56
2018-11-20T06:15:45.354Z,79.45
2018-11-20T06:18:29.323Z,79.59
2018-11-20T06:21:28.446Z,79.80
2018-11-20T06:24:29.184Z,79.77
2018-11-20T06:27:34.130Z,79.63
2018-11-20T06:30:14.751Z,79.98
2018-11-20T06:33:03.403Z,80.36
2018-11-20T06:35:59.214Z,80.00
2018-11-20T06:39:04.067Z,80.22
2018-11-20T06:42:35.567Z,81.10
2018-11-20T06:45:23.458Z,81.10
2018-11-20T06:48:12.989Z,81.44
2018-11-20T06:50:58.546Z,81.39
2018-11-20T06:53:46.492Z,81.43
2018-11-20T06:56:38.367Z,81.90
2018-11-20T06:59:26.461Z,81.61
2018-11-20T07:02:14.658Z,81.80
2018-11-20T07:05:09.501Z,81.61
2018-11-20T07:08:01.579Z,81.41
2018-11-20T07:10:56.581Z,81.52
2018-11-20T07:13:56.624Z,81.64
2018-11-20T07:16:56.432Z,81.72
2018-11-20T07:19:45.469Z,81.52
2018-11-20T07:22:34.351Z,81.39
2018-11-20T07:25:29.643Z,81.38
2018-11-20T07:28:21.753Z,81.40
2018-11-20T07:31:17.142Z,81.51
2018-11-20T07:34:08.864Z,81.02
2018-11-20T07:36:55.412Z,81.00
2018-11-20T07:39:44.128Z,81.30
2018-11-20T07:42:36.157Z,81.04
2018-11-20T07:45:25.820Z,81.18
2018-11-20T07:48:16.823Z,81.50
2018-11-20T07:51:17.746Z,81.53
2018-11-20T07:54:22.035Z,80.83
2018-11-20T07:57:09.687Z,80.74
2018-11-20T07:59:50.696Z,80.58
2018-11-20T08:02:39.840Z,80.48
2018-11-20T08:05:38.037Z,80.02
2018-11-20T08:08:27.036Z,80.16
2018-11-20T08:11:25.176Z,80.16
2018-11-20T08:14:13.069Z,79.60
2018-11-20T08:17:05.257Z,80.04
2018-11-20T08:20:02.055Z,79.53
2018-11-20T08:22:53.246Z,80.19
2018-11-20T08:26:00.559Z,80.13
2018-11-20T08:28:48.127Z,79.97
2018-11-20T08:31:35.747Z,79.86
2018-11-20T08:34:42.892Z,79.74
2018-11-20T08:37:30.477Z,80.22
2018-11-20T08:40:28.552Z,79.47
2018-11-20T08:43:26.724Z,78.91
2018-11-20T08:46:14.670Z,79.55
2018-11-20T08:49:22.097Z,79.80
2018-11-20T08:52:10.168Z,79.64
2018-11-20T08:54:59.329Z,80.58
2018-11-20T08:57:51.423Z,80.10
2018-11-20T09:00:29.918Z,79.60
2018-11-20T09:03:25.226Z,80.25
2018-11-20T09:06:28.923Z,80.16
2018-11-20T09:09:16.496Z,80.37
2018-11-20T09:12:05.547Z,79.78
2018-11-20T09:14:57.333Z,80.27
2018-11-20T09:17:52.409Z,80.27
2018-11-20T09:20:50.520Z,80.49
2018-11-20T09:23:38.373Z,80.33
2018-11-20T09:26:33.175Z,80.45
2018-11-20T09:29:28.457Z,80.67
2018-11-20T09:32:13.082Z,81.57
2018-11-20T09:34:54.253Z,81.30
2018-11-20T09:37:42.126Z,81.06
2018-11-20T09:41:11.559Z,80.94
2018-11-20T09:44:11.919Z,80.71
2018-11-20T09:47:04.001Z,80.31
2018-11-20T09:50:01.885Z,79.87
2018-11-20T09:52:50.116Z,79.30
2018-11-20T09:55:57.158Z,79.27
2018-11-20T09:58:44.581Z,79.24
2018-11-20T10:01:36.384Z,78.98
2018-11-20T10:04:24.214Z,79.23
2018-11-20T10:07:22.005Z,78.71
2018-11-20T10:10:09.826Z,78.78
2018-11-20T10:12:55.257Z,78.75
2018-11-20T10:15:59.734Z,79.16
2018-11-20T10:18:47.584Z,79.08
2018-11-20T10:21:54.957Z,78.83
2018-11-20T10:24:56.059Z,77.67
2018-11-20T10:27:43.986Z,78.40
2018-11-20T10:30:24.978Z,78.89
2018-11-20T10:33:20.136Z,79.10
2018-11-20T10:36:09.101Z,78.95
2018-11-20T10:39:09.791Z,78.83
2018-11-20T10:42:14.133Z,79.16
2018-11-20T10:45:05.688Z,79.21
2018-11-20T10:48:10.083Z,79.40
2018-11-20T10:50:57.456Z,79.38
2018-11-20T10:53:45.594Z,79.34
2018-11-20T10:56:37.303Z,79.21
2018-11-20T10:59:29.241Z,78.96
2018-11-20T11:02:16.737Z,78.96
2018-11-20T11:05:04.503Z,79.41
2018-11-20T11:07:52.350Z,79.94
2018-11-20T11:10:57.248Z,79.52
2018-11-20T11:13:46.263Z,79.28
2018-11-20T11:16:39.914Z,78.83
2018-11-20T11:19:27.544Z,78.12
2018-11-20T11:22:16.654Z,77.73
2018-11-20T11:25:14.676Z,77.82
2018-11-20T11:28:03.796Z,77.82
2018-11-20T11:30:52.760Z,77.32
2018-11-20T11:33:59.897Z,76.90
2018-11-20T11:36:51.808Z,76.49
2018-11-20T11:39:42.904Z,75.15
2018-11-20T11:42:31.947Z,74.29
2018-11-20T11:45:36.058Z,74.22
2018-11-20T11:48:24.075Z,74.46
2018-11-20T11:51:05.057Z,74.52
2018-11-20T11:53:54.162Z,75.91
2018-11-20T11:56:46.043Z,76.12
2018-11-20T11:59:47.120Z,76.66
2018-11-20T12:05:29.676Z,76.35
2018-11-20T12:08:21.740Z,76.35
2018-11-20T12:11:09.571Z,77.08
2018-11-20T12:16:49.715Z,77.33
2018-11-20T12:19:47.669Z,77.44
2018-11-20T12:22:35.384Z,77.14
2018-11-20T12:25:24.569Z,77.16
2018-11-20T12:28:22.515Z,76.64
2018-11-20T12:31:14.392Z,76.53
2018-11-20T12:34:03.511Z,76.93
2018-11-20T12:36:58.578Z,76.69
2018-11-20T12:39:53.275Z,76.96
2018-11-20T12:42:32.056Z,77.73
2018-11-20T12:45:23.806Z,76.85
2018-11-20T12:48:25.125Z,76.66
2018-11-20T12:51:20.365Z,76.19
2018-11-20T12:54:00.154Z,76.90
2018-11-20T12:56:47.466Z,76.62
2018-11-20T12:59:39.192Z,76.79
2018-11-20T13:02:30.716Z,76.87
2018-11-20T13:05:18.769Z,77.23
2018-11-20T13:08:07.436Z,77.51
2018-11-20T13:10:55.115Z,77.30
2018-11-20T13:13:36.648Z,77.74
2018-11-20T13:16:22.847Z,77.11
2018-11-20T13:19:20.730Z,77.43
2018-11-20T13:22:08.784Z,77.75
2018-11-20T13:24:58.027Z,77.74
2018-11-20T13:27:57.338Z,77.57
2018-11-20T13:30:46.394Z,77.16
2018-11-20T13:33:41.270Z,77.29
2018-11-20T13:36:39.242Z,76.76
2018-11-20T13:39:47.153Z,76.80
2018-11-20T13:42:41.547Z,76.59
2018-11-20T13:45:32.130Z,76.23
2018-11-20T13:48:21.126Z,75.62
2018-11-20T13:51:11.612Z,75.88
2018-11-20T13:53:57.940Z,76.13
2018-11-20T13:56:48.998Z,76.35
2018-11-20T13:59:38.019Z,76.58
2018-11-20T14:02:30.083Z,76.70
2018-11-20T14:05:26.578Z,76.43
2018-11-20T14:08:32.245Z,76.05
2018-11-20T14:11:20.154Z,75.99
2018-11-20T14:14:04.636Z,76.49
2018-11-20T14:16:59.919Z,76.57
2018-11-20T14:19:45.960Z,76.62
2018-11-20T14:22:31.587Z,77.03
2018-11-20T14:25:20.503Z,77.34
2018-11-20T14:28:15.244Z,77.16
2018-11-20T14:31:10.343Z,77.17
2018-11-20T14:33:58.375Z,77.41
2018-11-20T14:36:46.136Z,77.61
2018-11-20T14:39:34.639Z,77.48
2018-11-20T14:42:17.473Z,77.64
2018-11-20T14:45:06.646Z,77.76
2018-11-20T14:47:54.464Z,77.68
2018-11-20T14:50:46.331Z,77.57
2018-11-20T14:53:35.445Z,77.42
2018-11-20T14:56:36.870Z,77.42
2018-11-20T14:59:41.213Z,77.58
2018-11-20T15:02:28.840Z,77.34
2018-11-20T15:05:16.935Z,76.85
2018-11-20T15:08:14.935Z,77.19
2018-11-20T15:11:02.678Z,76.69
2018-11-20T15:13:54.443Z,76.58
2018-11-20T15:16:49.423Z,76.81
2018-11-20T15:19:37.430Z,76.87
2018-11-20T15:22:14.545Z,76.88
2018-11-20T15:25:16.174Z,76.92
2018-11-20T15:28:16.905Z,77.24
2018-11-20T15:31:18.168Z,77.25
2018-11-20T15:34:05.880Z,77.66
2018-11-20T15:36:53.648Z,77.58
2018-11-20T15:39:33.620Z,77.45
2018-11-20T15:42:34.776Z,77.28
2018-11-20T15:45:22.607Z,77.11
2018-11-20T15:48:10.165Z,77.09
2018-11-20T15:51:08.194Z,76.63
2018-11-20T15:54:03.091Z,76.86
2018-11-20T15:57:07.344Z,76.78
2018-11-20T15:59:56.085Z,76.44
2018-11-20T16:02:35.757Z,76.48
2018-11-20T16:05:40.489Z,76.33
2018-11-20T16:08:28.049Z,76.25
2018-11-20T16:11:16.129Z,76.25
2018-11-20T16:14:03.805Z,75.87
2018-11-20T16:17:01.881Z,75.99
2018-11-20T16:19:49.606Z,76.44
2018-11-20T16:22:50.618Z,76.09
2018-11-20T16:25:57.831Z,76.03
2018-11-20T16:29:05.259Z,76.13
2018-11-20T16:31:52.838Z,76.28
2018-11-20T16:34:44.640Z,76.46
2018-11-20T16:37:36.692Z,75.95
2018-11-20T16:40:25.556Z,76.28
2018-11-20T16:43:14.498Z,75.45
2018-11-20T16:46:18.867Z,75.47
2018-11-20T16:49:00.381Z,75.46
2018-11-20T16:51:58.620Z,75.28
2018-11-20T16:54:40.181Z,75.23
2018-11-20T16:57:32.263Z,75.77
2018-11-20T17:00:19.950Z,76.14
2018-11-20T17:03:09.048Z,76.23
2018-11-20T17:06:03.801Z,76.31
2018-11-20T17:08:52.900Z,75.86
2018-11-20T17:11:40.525Z,75.42
2018-11-20T17:14:26.630Z,75.36
2018-11-20T17:17:21.650Z,75.19
2018-11-20T17:20:09.229Z,75.05
2018-11-20T17:22:58.142Z,75.31
2018-11-20T17:25:47.232Z,75.14
2018-11-20T17:28:35.129Z,75.95
2018-11-20T17:31:25.854Z,75.53
2018-11-20T17:34:13.557Z,75.36
2018-11-20T17:37:01.240Z,75.23
2018-11-20T17:39:50.227Z,74.78
2018-11-20T17:42:38.125Z,74.95
2018-11-20T17:45:43.640Z,74.98
2018-11-20T17:48:31.552Z,75.45
2018-11-20T17:51:20.614Z,75.33
2018-11-20T17:54:15.375Z,75.40
2018-11-20T17:57:03.151Z,75.83
2018-11-20T18:00:00.873Z,76.60
2018-11-20T18:02:49.907Z,77.72
2018-11-20T18:05:41.623Z,78.21
2018-11-20T18:08:42.879Z,78.36
2018-11-20T18:11:23.797Z,78.97
2018-11-20T18:14:02.982Z,79.42
2018-11-20T18:16:52.077Z,79.59
2018-11-20T18:19:43.807Z,79.75
2018-11-20T18:22:44.716Z,79.78
2018-11-20T18:25:36.859Z,80.29
2018-11-20T18:28:32.361Z,80.47
2018-11-20T18:31:39.493Z,80.46
2018-11-20T18:34:27.072Z,80.32
2018-11-20T18:37:10.190Z,80.51
2018-11-20T18:39:55.300Z,80.65
2018-11-20T18:42:54.210Z,80.87
2018-11-20T18:45:42.766Z,81.06
2018-11-20T18:48:51.375Z,80.90
2018-11-20T18:51:56.073Z,81.02
2018-11-20T18:54:43.892Z,80.42
2018-11-20T18:57:32.723Z,80.27
2018-11-20T19:00:20.435Z,80.19
2018-11-20T19:03:19.208Z,79.78
2018-11-20T19:06:20.542Z,80.05
2018-11-20T19:09:05.172Z,79.87
2018-11-20T19:12:12.620Z,79.71
2018-11-20T19:15:03.159Z,79.77
2018-11-20T19:17:55.305Z,79.79
2018-11-20T19:20:42.257Z,79.87
2018-11-20T19:23:32.696Z,79.56
2018-11-20T19:26:22.644Z,79.46
2018-11-20T19:29:10.347Z,79.52
2018-11-20T19:32:06.058Z,79.46
2018-11-20T19:34:51.240Z,79.51
2018-11-20T19:37:39.583Z,79.09
2018-11-20T19:40:28.654Z,79.40
2018-11-20T19:43:17.952Z,79.31
2018-11-20T19:46:06.830Z,79.19
2018-11-20T19:48:54.447Z,79.07
2018-11-20T19:51:41.878Z,78.97
2018-11-20T19:54:43.313Z,79.24
2018-11-20T19:57:32.814Z,79.03
2018-11-20T20:00:37.196Z,78.42
2018-11-20T20:03:37.160Z,79.07
2018-11-20T20:06:26.376Z,78.91
2018-11-20T20:09:28.466Z,78.75
2018-11-20T20:12:32.385Z,78.48
2018-11-20T20:15:34.764Z,78.79
2018-11-20T20:18:34.163Z,79.11
2018-11-20T20:21:21.947Z,79.30
2018-11-20T20:24:08.401Z,79.32
2018-11-20T20:27:16.748Z,79.25
2018-11-20T20:30:10.000Z,79.15
2018-11-20T20:33:02.835Z,79.27
2018-11-20T20:35:54.770Z,79.25
2018-11-20T20:38:42.491Z,79.41
2018-11-20T20:41:28.817Z,79.46
2018-11-20T20:44:20.229Z,79.59
2018-11-20T20:47:09.039Z,79.75
2018-11-20T20:49:56.912Z,80.02
2018-11-20T20:52:44.736Z,80.05
2018-11-20T20:55:50.894Z,80.05
2018-11-20T20:58:36.245Z,80.09
2018-11-20T21:01:28.279Z,80.09
2018-11-20T21:04:14.801Z,80.11
2018-11-20T21:07:10.985Z,80.07
2018-11-20T21:10:00.040Z,79.91
2018-11-20T21:12:57.926Z,79.90
2018-11-20T21:15:47.325Z,79.96
2018-11-20T21:18:36.131Z,79.94
2018-11-20T21:21:34.251Z,80.12
2018-11-20T21:24:26.900Z,80.31
2018-11-20T21:27:23.187Z,80.09
2018-11-20T21:30:31.668Z,80.02
2018-11-20T21:33:17.929Z,79.89
2018-11-20T21:36:10.581Z,80.51
2018-11-20T21:38:58.329Z,80.61
2018-11-20T21:41:53.893Z,80.86
2018-11-20T21:44:37.447Z,81.14
2018-11-20T21:47:18.249Z,81.02
2018-11-20T21:50:08.555Z,81.18
2018-11-20T21:52:57.338Z,81.43
2018-11-20T21:55:46.370Z,81.68
2018-11-20T21:58:47.108Z,81.97
2018-11-20T22:01:36.218Z,81.92
2018-11-20T22:04:31.892Z,81.98
2018-11-20T22:07:17.075Z,81.88
2018-11-20T22:10:10.694Z,81.94
2018-11-20T22:13:08.685Z,82.00
2018-11-20T22:15:57.863Z,82.17
2018-11-20T22:18:47.025Z,82.23
2018-11-20T22:21:35.412Z,82.15
2018-11-20T22:24:36.825Z,82.07
2018-11-20T22:27:25.018Z,81.89
2018-11-20T22:30:12.573Z,81.83
2018-11-20T22:33:04.669Z,82.10
2018-11-20T22:35:53.975Z,81.93
2018-11-20T22:38:41.774Z,81.42
2018-11-20T22:41:35.409Z,81.36
2018-11-20T22:44:15.456Z,80.95
2018-11-20T22:47:23.760Z,80.71
2018-11-20T22:50:00.847Z,80.56
2018-11-20T22:52:52.420Z,80.57
2018-11-20T22:55:48.816Z,80.62
2018-11-20T22:58:53.345Z,80.38
2018-11-20T23:01:42.340Z,80.34
2018-11-20T23:04:32.316Z,80.17
2018-11-20T23:07:21.060Z,79.90
2018-11-20T23:09:53.197Z,79.85
2018-11-20T23:12:24.160Z,79.87
2018-11-20T23:14:54.212Z,79.69
2018-11-20T23:17:24.260Z,79.67
2018-11-20T23:19:54.223Z,79.62
2018-11-20T23:22:24.903Z,79.53
2018-11-20T23:24:54.896Z,79.55
2018-11-20T23:27:28.954Z,79.19
2018-11-20T23:29:59.963Z,79.10
2018-11-20T23:32:32.185Z,78.85
2018-11-20T23:35:03.260Z,78.44
2018-11-20T23:37:34.774Z,78.09
2018-11-20T23:40:04.969Z,78.40
2018-11-20T23:42:36.412Z,78.03
2018-11-20T23:45:09.056Z,77.79
2018-11-20T23:47:42.483Z,77.49
2018-11-20T23:50:13.904Z,77.62
2018-11-20T23:52:45.592Z,77.56
2018-11-20T23:55:17.249Z,77.39
2018-11-20T23:57:47.364Z,77.58
